Jefferson Park, Illinois
Current Conditions -  °F | °C
As of 10:45 AM on Monday 24 Nov 2014 (Local Time) from KORD Reporting Station
Light Snow Light Snow  
Wind Chill: 22°   Ceiling: 1300
Heat Index: 34°   Visibility: 0.75mi
Dew Point: 30°   Wind: 22mph
Humidity: 87%   Direction: 250°WSW
Pressure: 29.25"   Gusts: 37mph
Location:  41.9738°N, 87.7498°W
Report Text: KORD 241645Z 25019G32KT 3/4SM R10L/4500V5500FT -SN BR SCT010 OVC013 01/M01 A2925 RMK AO2 PK WND 25032/1639 RAE27PLB06E31SNB24 P0005
Loading
Personal Weather Stations






























Interactive Weather Map New forecast layout! Learn more

10-Day Weather Forecast

Advertisements
Track Severe Weather on mobile